Time;durP1;ratioP1;P1;durP2;ratioP2;P2;SDS_P1;SDS_P2;PMS_P1;PMS_P2;Temp;Humidity;BMP_temperature;BMP_pressure;BME280_temperature;BME280_humidity;BME280_pressure;Samples;Min_cycle;Max_cycle;Signal;HPM_P1;HPM_P2
2021/07/22 00:00:33;;;;;;;14.32;7.68;;;;;;;;;;5034747;28;20434;-81
2021/07/22 00:03:18;;;;;;;13.32;7.53;;;;;;;;;;5034600;28;20460;-82
2021/07/22 00:06:04;;;;;;;12.48;7.15;;;;;;;;;;5035108;28;20084;-82
2021/07/22 00:08:49;;;;;;;15.77;7.78;;;;;;;;;;5034558;28;20017;-82
2021/07/22 00:11:34;;;;;;;11.95;7.57;;;;;;;;;;5035452;28;20486;-82
2021/07/22 00:14:19;;;;;;;9.85;6.75;;;;;;;;;;5054903;28;20116;-82
2021/07/22 00:17:05;;;;;;;12.20;7.72;;;;;;;;;;5014758;28;20029;-82
2021/07/22 00:19:50;;;;;;;11.52;7.30;;;;;;;;;;5014652;28;20033;-82
2021/07/22 00:22:38;;;;;;;11.80;7.63;;;;;;;;;;5014737;28;20807;-84
2021/07/22 00:25:24;;;;;;;11.63;7.45;;;;;;;;;;5014571;28;20031;-81
2021/07/22 00:28:09;;;;;;;12.93;7.82;;;;;;;;;;5028759;28;20029;-81
2021/07/22 00:30:55;;;;;;;12.25;6.65;;;;;;;;;;5014595;28;20021;-82
2021/07/22 00:33:40;;;;;;;10.57;7.57;;;;;;;;;;5014802;28;20048;-82
2021/07/22 00:36:25;;;;;;;10.35;6.70;;;;;;;;;;5028618;28;20025;-82
2021/07/22 00:39:14;;;;;;;10.00;6.78;;;;;;;;;;5012246;28;20098;-82
2021/07/22 00:42:00;;;;;;;9.57;6.40;;;;;;;;;;5028196;28;20537;-82
2021/07/22 00:44:45;;;;;;;10.95;6.88;;;;;;;;;;5027764;28;20025;-81
2021/07/22 00:47:30;;;;;;;11.35;7.90;;;;;;;;;;5026316;28;20025;-82
2021/07/22 00:50:16;;;;;;;10.57;7.22;;;;;;;;;;5011339;28;20028;-82
2021/07/22 00:53:01;;;;;;;14.13;7.55;;;;;;;;;;4997339;28;20086;-82
2021/07/22 00:55:46;;;;;;;12.70;7.57;;;;;;;;;;5014047;28;20539;-82
2021/07/22 00:58:32;;;;;;;11.73;7.32;;;;;;;;;;5014344;28;20124;-83
2021/07/22 01:01:18;;;;;;;12.25;7.47;;;;;;;;;;5013552;28;20074;-81
2021/07/22 01:04:03;;;;;;;13.10;7.10;;;;;;;;;;5013923;28;20495;-82
2021/07/22 01:06:48;;;;;;;12.45;6.88;;;;;;;;;;5013974;28;20059;-83
2021/07/22 01:09:33;;;;;;;10.05;6.75;;;;;;;;;;5025802;28;20429;-83
2021/07/22 01:12:19;;;;;;;12.77;7.72;;;;;;;;;;5040914;28;20017;-82
2021/07/22 01:15:04;;;;;;;12.27;7.30;;;;;;;;;;5047624;28;20029;-82
2021/07/22 01:17:50;;;;;;;11.70;7.35;;;;;;;;;;5033863;28;20020;-83
2021/07/22 01:20:35;;;;;;;11.82;6.78;;;;;;;;;;5032161;28;20025;-82
2021/07/22 01:23:20;;;;;;;12.23;7.20;;;;;;;;;;5033331;28;20017;-83
2021/07/22 01:26:05;;;;;;;10.77;7.63;;;;;;;;;;5031737;28;20054;-82
2021/07/22 01:28:50;;;;;;;12.15;7.15;;;;;;;;;;5033965;28;20059;-81
2021/07/22 01:31:35;;;;;;;13.63;6.97;;;;;;;;;;5033247;28;20095;-82
2021/07/22 01:34:21;;;;;;;11.23;6.80;;;;;;;;;;5033763;28;20028;-82
2021/07/22 01:37:06;;;;;;;11.40;7.07;;;;;;;;;;5033760;28;20071;-81
2021/07/22 01:39:51;;;;;;;10.07;6.80;;;;;;;;;;5031156;28;20068;-81
2021/07/22 01:42:36;;;;;;;10.80;7.40;;;;;;;;;;5033461;28;20029;-82
2021/07/22 01:45:21;;;;;;;11.00;6.90;;;;;;;;;;5033840;28;20468;-82
2021/07/22 01:48:07;;;;;;;10.32;7.65;;;;;;;;;;5033194;28;20021;-81
2021/07/22 01:50:52;;;;;;;12.77;8.05;;;;;;;;;;5033481;28;20072;-81
2021/07/22 01:53:37;;;;;;;11.65;6.95;;;;;;;;;;5033365;28;20032;-81
2021/07/22 01:56:23;;;;;;;10.40;7.32;;;;;;;;;;5033291;28;20025;-81
2021/07/22 01:59:08;;;;;;;13.88;7.60;;;;;;;;;;5033434;28;20044;-81
2021/07/22 02:01:54;;;;;;;9.70;7.13;;;;;;;;;;5033383;28;20103;-80
2021/07/22 02:04:40;;;;;;;14.05;7.82;;;;;;;;;;5032991;28;20033;-81
2021/07/22 02:07:25;;;;;;;10.75;7.05;;;;;;;;;;5033285;28;20025;-81
2021/07/22 02:10:10;;;;;;;11.48;7.38;;;;;;;;;;5031259;28;20379;-82
2021/07/22 02:12:55;;;;;;;11.32;7.57;;;;;;;;;;5044947;28;20062;-81
2021/07/22 02:15:41;;;;;;;12.50;7.00;;;;;;;;;;5038810;28;20021;-82
2021/07/22 02:18:26;;;;;;;10.00;7.07;;;;;;;;;;5032666;28;20104;-82
2021/07/22 02:21:11;;;;;;;10.27;7.32;;;;;;;;;;5032671;28;20094;-82
2021/07/22 02:23:56;;;;;;;13.13;7.68;;;;;;;;;;5036403;28;20017;-81
2021/07/22 02:26:42;;;;;;;13.18;7.95;;;;;;;;;;5016205;28;20092;-82
2021/07/22 02:29:27;;;;;;;13.10;8.40;;;;;;;;;;5017243;28;20040;-81
2021/07/22 02:32:12;;;;;;;11.13;7.38;;;;;;;;;;5017041;28;20578;-82
2021/07/22 02:34:57;;;;;;;12.80;7.45;;;;;;;;;;5016917;28;20021;-81
2021/07/22 02:37:44;;;;;;;10.48;6.88;;;;;;;;;;5017276;28;20029;-82
2021/07/22 02:40:30;;;;;;;10.98;6.57;;;;;;;;;;5016205;28;20073;-82
2021/07/22 02:43:15;;;;;;;13.13;8.40;;;;;;;;;;5016777;28;20084;-83
2021/07/22 02:46:04;;;;;;;9.25;6.35;;;;;;;;;;5030736;28;20056;-82
2021/07/22 02:48:53;;;;;;;12.23;6.72;;;;;;;;;;5016477;28;20032;-83
2021/07/22 02:51:38;;;;;;;11.93;7.63;;;;;;;;;;5030076;28;20387;-81
2021/07/22 02:54:24;;;;;;;11.15;7.30;;;;;;;;;;5016295;28;20395;-81
2021/07/22 02:57:09;;;;;;;10.00;7.65;;;;;;;;;;5016805;28;20025;-81
2021/07/22 02:59:56;;;;;;;12.57;7.25;;;;;;;;;;5014728;28;20083;-82
2021/07/22 03:02:41;;;;;;;10.57;7.80;;;;;;;;;;5030128;28;20025;-82
2021/07/22 03:05:27;;;;;;;11.82;6.95;;;;;;;;;;5015914;28;20541;-81
2021/07/22 03:08:12;;;;;;;11.75;7.00;;;;;;;;;;5016090;28;20393;-81
2021/07/22 03:10:59;;;;;;;13.73;7.25;;;;;;;;;;5029922;28;20051;-82
2021/07/22 03:13:44;;;;;;;11.95;7.57;;;;;;;;;;5050137;28;20116;-81
2021/07/22 03:16:29;;;;;;;11.75;6.80;;;;;;;;;;5037773;28;20082;-81
2021/07/22 03:19:14;;;;;;;12.07;7.75;;;;;;;;;;5034096;28;20123;-81
2021/07/22 03:21:59;;;;;;;11.90;7.32;;;;;;;;;;5035795;28;20128;-81
2021/07/22 03:24:46;;;;;;;11.15;8.23;;;;;;;;;;5035536;28;20107;-82
2021/07/22 03:27:31;;;;;;;14.25;7.60;;;;;;;;;;5036167;28;20412;-81
2021/07/22 03:30:16;;;;;;;10.52;7.00;;;;;;;;;;5033831;28;20464;-81
2021/07/22 03:33:01;;;;;;;11.60;7.15;;;;;;;;;;5035322;28;20032;-83
2021/07/22 03:35:46;;;;;;;10.57;7.07;;;;;;;;;;5032470;28;20463;-83
2021/07/22 03:38:32;;;;;;;13.00;7.90;;;;;;;;;;5035106;28;20017;-82
2021/07/22 03:41:17;;;;;;;12.48;7.38;;;;;;;;;;5006395;28;20057;-82
2021/07/22 03:44:02;;;;;;;11.88;7.78;;;;;;;;;;5009802;28;20026;-83
2021/07/22 03:46:47;;;;;;;17.65;7.50;;;;;;;;;;5009650;28;20018;-82
2021/07/22 03:49:33;;;;;;;14.35;8.18;;;;;;;;;;5009515;28;20029;-82
2021/07/22 03:52:18;;;;;;;9.80;6.82;;;;;;;;;;5009369;28;20117;-83
2021/07/22 03:55:03;;;;;;;11.63;8.05;;;;;;;;;;5009716;28;20030;-81
2021/07/22 03:57:48;;;;;;;10.98;7.45;;;;;;;;;;5009434;28;20022;-81
2021/07/22 04:00:34;;;;;;;9.98;7.97;;;;;;;;;;5008993;28;20040;-81
2021/07/22 04:03:19;;;;;;;12.50;7.32;;;;;;;;;;4995934;28;20053;-82
2021/07/22 04:06:07;;;;;;;11.75;7.13;;;;;;;;;;5009012;28;20022;-81
2021/07/22 04:08:52;;;;;;;11.50;7.50;;;;;;;;;;5007258;28;20362;-81
2021/07/22 04:11:37;;;;;;;9.23;6.55;;;;;;;;;;5010508;28;20034;-80
2021/07/22 04:14:23;;;;;;;10.57;7.93;;;;;;;;;;5026544;28;20036;-82
2021/07/22 04:17:11;;;;;;;12.32;7.90;;;;;;;;;;5009095;28;20137;-81
2021/07/22 04:19:56;;;;;;;11.52;7.65;;;;;;;;;;5008715;28;20069;-81
2021/07/22 04:22:42;;;;;;;12.73;6.95;;;;;;;;;;5007131;28;20024;-81
2021/07/22 04:25:27;;;;;;;13.20;8.18;;;;;;;;;;5009097;28;20017;-81
2021/07/22 04:28:12;;;;;;;11.02;6.88;;;;;;;;;;5005134;28;20026;-81
2021/07/22 04:30:58;;;;;;;11.80;7.07;;;;;;;;;;5008644;28;20033;-81
2021/07/22 04:33:43;;;;;;;12.27;8.02;;;;;;;;;;5008888;28;20109;-80
2021/07/22 04:36:30;;;;;;;10.68;7.50;;;;;;;;;;5008188;28;20208;-81
2021/07/22 04:39:15;;;;;;;14.10;7.47;;;;;;;;;;5013899;28;20029;-81
2021/07/22 04:42:00;;;;;;;12.75;8.70;;;;;;;;;;5034121;28;20387;-80
2021/07/22 04:44:46;;;;;;;12.65;7.65;;;;;;;;;;5033487;28;20025;-81
2021/07/22 04:47:31;;;;;;;11.75;6.78;;;;;;;;;;5033170;28;20020;-83
2021/07/22 04:50:16;;;;;;;12.20;7.72;;;;;;;;;;5034175;28;20067;-83
2021/07/22 04:53:01;;;;;;;12.38;7.47;;;;;;;;;;5032517;28;20029;-82
2021/07/22 04:55:46;;;;;;;11.38;7.28;;;;;;;;;;5034352;28;20025;-83
2021/07/22 04:58:31;;;;;;;13.13;8.05;;;;;;;;;;5033861;28;20025;-82
2021/07/22 05:01:17;;;;;;;10.10;7.53;;;;;;;;;;5032102;28;20025;-83
2021/07/22 05:04:02;;;;;;;13.18;8.95;;;;;;;;;;5034058;28;20033;-83
2021/07/22 05:06:47;;;;;;;12.65;8.02;;;;;;;;;;5033631;28;20348;-81
2021/07/22 05:09:32;;;;;;;10.80;7.28;;;;;;;;;;5033731;28;20021;-81
2021/07/22 05:12:17;;;;;;;16.60;7.47;;;;;;;;;;5040826;28;20028;-82
2021/07/22 05:15:03;;;;;;;11.65;7.65;;;;;;;;;;5047090;28;20030;-81
2021/07/22 05:17:48;;;;;;;11.95;8.02;;;;;;;;;;5033936;28;20028;-82
2021/07/22 05:20:33;;;;;;;10.60;6.97;;;;;;;;;;5033691;28;20040;-81
2021/07/22 05:23:19;;;;;;;11.70;7.97;;;;;;;;;;5033417;28;20448;-82
2021/07/22 05:26:05;;;;;;;11.27;7.28;;;;;;;;;;5033669;28;20071;-82
2021/07/22 05:28:50;;;;;;;11.50;7.20;;;;;;;;;;5033679;28;20395;-82
2021/07/22 05:31:42;;;;;;;13.40;7.93;;;;;;;;;;5031599;28;20468;-81
2021/07/22 05:34:27;;;;;;;10.45;7.30;;;;;;;;;;5031864;28;20033;-82
2021/07/22 05:37:12;;;;;;;13.10;7.47;;;;;;;;;;5019771;28;20028;-82
2021/07/22 05:39:57;;;;;;;10.48;7.50;;;;;;;;;;5031463;28;20056;-81
2021/07/22 05:42:42;;;;;;;14.88;7.32;;;;;;;;;;5033764;28;20456;-81
2021/07/22 05:45:28;;;;;;;10.13;7.07;;;;;;;;;;5034922;28;20490;-82
2021/07/22 05:48:13;;;;;;;10.65;7.70;;;;;;;;;;5033550;28;20462;-82
2021/07/22 05:50:59;;;;;;;9.88;7.07;;;;;;;;;;5019434;28;20116;-81
2021/07/22 05:53:44;;;;;;;11.50;7.15;;;;;;;;;;5033528;28;20025;-82
2021/07/22 05:56:29;;;;;;;12.90;7.47;;;;;;;;;;5035228;28;20032;-81
2021/07/22 05:59:14;;;;;;;10.35;7.55;;;;;;;;;;5037189;28;20115;-82
2021/07/22 06:02:01;;;;;;;12.10;7.65;;;;;;;;;;5037602;28;20154;-81
2021/07/22 06:04:47;;;;;;;10.27;7.50;;;;;;;;;;5037661;28;20331;-82
2021/07/22 06:07:32;;;;;;;13.27;7.75;;;;;;;;;;5037366;28;20029;-82
2021/07/22 06:10:17;;;;;;;10.88;7.93;;;;;;;;;;5037506;28;20013;-82
2021/07/22 06:13:02;;;;;;;12.30;7.55;;;;;;;;;;5050011;28;20020;-82
2021/07/22 06:15:47;;;;;;;12.63;7.18;;;;;;;;;;5044839;28;20032;-81
2021/07/22 06:18:33;;;;;;;12.15;7.18;;;;;;;;;;5037267;28;20140;-81
2021/07/22 06:21:18;;;;;;;11.65;7.60;;;;;;;;;;5036678;28;20029;-82
2021/07/22 06:24:03;;;;;;;15.65;8.98;;;;;;;;;;5036751;28;20503;-82
2021/07/22 06:26:48;;;;;;;16.95;9.00;;;;;;;;;;5037408;28;20440;-83
2021/07/22 06:29:34;;;;;;;11.85;7.47;;;;;;;;;;5029456;28;20108;-83
2021/07/22 06:32:19;;;;;;;12.63;8.30;;;;;;;;;;5034960;28;20014;-83
2021/07/22 06:35:04;;;;;;;12.07;7.63;;;;;;;;;;5033013;28;20025;-83
2021/07/22 06:37:49;;;;;;;16.13;8.13;;;;;;;;;;5036583;28;20037;-84
2021/07/22 06:40:35;;;;;;;14.02;8.07;;;;;;;;;;5035949;28;20047;-82
2021/07/22 06:43:20;;;;;;;22.42;16.60;;;;;;;;;;5047473;28;20095;-82
2021/07/22 06:46:05;;;;;;;14.18;8.43;;;;;;;;;;5033320;28;20041;-82
2021/07/22 06:48:54;;;;;;;13.40;9.40;;;;;;;;;;5032475;28;20118;-81
2021/07/22 06:51:39;;;;;;;12.80;7.67;;;;;;;;;;5049842;28;20025;-83
2021/07/22 06:54:24;;;;;;;15.70;8.07;;;;;;;;;;5036815;28;20275;-82
2021/07/22 06:57:10;;;;;;;15.80;8.48;;;;;;;;;;5036096;28;20036;-83
2021/07/22 06:59:55;;;;;;;16.88;9.27;;;;;;;;;;5036191;28;20032;-83
2021/07/22 07:02:40;;;;;;;15.63;8.23;;;;;;;;;;5033279;28;20017;-83
2021/07/22 07:05:26;;;;;;;14.57;8.95;;;;;;;;;;5035538;28;20138;-83
2021/07/22 07:08:11;;;;;;;11.98;8.13;;;;;;;;;;5035619;28;20109;-84
2021/07/22 07:10:56;;;;;;;12.20;7.93;;;;;;;;;;5036391;28;20457;-83
2021/07/22 07:13:41;;;;;;;18.15;12.02;;;;;;;;;;5040468;28;20025;-83
2021/07/22 07:16:26;;;;;;;22.27;18.15;;;;;;;;;;5039407;28;20233;-84
2021/07/22 07:19:12;;;;;;;14.63;8.52;;;;;;;;;;5035326;28;20383;-84
2021/07/22 07:21:57;;;;;;;13.35;9.05;;;;;;;;;;5036072;28;20167;-82
2021/07/22 07:24:42;;;;;;;21.15;10.57;;;;;;;;;;5033401;28;20498;-84
2021/07/22 07:27:27;;;;;;;14.30;8.93;;;;;;;;;;5036628;28;20039;-84
2021/07/22 07:30:13;;;;;;;15.27;9.35;;;;;;;;;;5036858;28;20116;-84
2021/07/22 07:32:58;;;;;;;17.50;8.82;;;;;;;;;;5037049;28;20024;-84
2021/07/22 07:35:43;;;;;;;11.35;8.38;;;;;;;;;;5036647;28;20051;-84
2021/07/22 07:38:29;;;;;;;17.00;9.23;;;;;;;;;;5036515;28;20365;-84
2021/07/22 07:41:14;;;;;;;14.10;9.23;;;;;;;;;;5034552;28;20048;-83
2021/07/22 07:43:59;;;;;;;19.20;10.40;;;;;;;;;;5035565;28;20143;-84
2021/07/22 07:46:45;;;;;;;15.32;10.05;;;;;;;;;;5036164;28;20029;-84
2021/07/22 07:49:30;;;;;;;20.33;16.35;;;;;;;;;;5036371;28;20021;-84
2021/07/22 07:52:15;;;;;;;16.50;10.23;;;;;;;;;;5035694;28;20024;-84
2021/07/22 07:55:01;;;;;;;14.18;10.48;;;;;;;;;;5036187;28;20025;-84
2021/07/22 07:57:46;;;;;;;15.68;9.25;;;;;;;;;;5049886;28;20023;-84
2021/07/22 08:00:31;;;;;;;13.68;9.30;;;;;;;;;;5033949;28;20025;-84
2021/07/22 08:03:18;;;;;;;17.08;9.30;;;;;;;;;;5032832;28;20028;-84
2021/07/22 08:06:03;;;;;;;12.30;8.88;;;;;;;;;;5035426;28;20025;-84
2021/07/22 08:08:48;;;;;;;19.58;10.00;;;;;;;;;;5035322;28;20017;-84
2021/07/22 08:11:33;;;;;;;18.45;10.18;;;;;;;;;;5036537;28;20028;-84
2021/07/22 08:14:19;;;;;;;19.50;10.98;;;;;;;;;;5055480;28;20064;-84
2021/07/22 08:17:07;;;;;;;20.88;11.07;;;;;;;;;;5015845;28;20441;-84
2021/07/22 08:19:57;;;;;;;15.85;9.55;;;;;;;;;;5013072;28;20105;-84
2021/07/22 08:22:43;;;;;;;14.23;9.05;;;;;;;;;;5015465;28;20519;-84
2021/07/22 08:25:28;;;;;;;19.38;8.55;;;;;;;;;;5016123;28;20044;-83
2021/07/22 08:28:13;;;;;;;18.27;8.73;;;;;;;;;;5002003;28;20102;-85
2021/07/22 08:30:58;;;;;;;12.57;8.35;;;;;;;;;;5013934;28;20021;-84
2021/07/22 08:33:43;;;;;;;14.85;9.05;;;;;;;;;;5015534;28;20036;-83
2021/07/22 08:36:29;;;;;;;17.00;8.18;;;;;;;;;;5013700;28;20037;-84
2021/07/22 08:39:14;;;;;;;16.15;12.20;;;;;;;;;;5015263;28;20025;-84
2021/07/22 08:42:02;;;;;;;18.42;13.68;;;;;;;;;;5013415;28;20029;-85
2021/07/22 08:44:48;;;;;;;17.67;8.93;;;;;;;;;;5014922;28;20526;-85
2021/07/22 08:47:35;;;;;;;13.55;8.38;;;;;;;;;;5015228;28;20527;-84
2021/07/22 08:50:23;;;;;;;12.68;8.07;;;;;;;;;;5015261;28;20026;-85
2021/07/22 08:53:13;;;;;;;13.38;7.55;;;;;;;;;;5015471;28;20056;-86
2021/07/22 08:55:59;;;;;;;12.80;8.05;;;;;;;;;;5014993;28;20053;-85
2021/07/22 08:58:44;;;;;;;16.50;9.18;;;;;;;;;;5029164;28;20029;-84
2021/07/22 09:01:31;;;;;;;16.73;8.02;;;;;;;;;;5015256;28;20025;-84
2021/07/22 09:04:16;;;;;;;12.98;7.57;;;;;;;;;;5014941;28;20452;-85
2021/07/22 09:07:02;;;;;;;13.15;7.45;;;;;;;;;;5014881;28;20733;-85
2021/07/22 09:10:06;;;;;;;16.27;8.20;;;;;;;;;;5014261;28;20499;-85
2021/07/22 09:12:52;;;;;;;12.50;6.90;;;;;;;;;;5045702;28;20032;-84
2021/07/22 09:15:37;;;;;;;11.93;7.13;;;;;;;;;;5044239;28;20096;-85
2021/07/22 09:18:28;;;;;;;10.65;7.35;;;;;;;;;;5034564;28;20017;-85
2021/07/22 09:21:21;;;;;;;15.00;6.72;;;;;;;;;;5032729;28;20025;-85
2021/07/22 09:24:08;;;;;;;18.13;12.95;;;;;;;;;;5030672;28;20025;-85
2021/07/22 09:26:54;;;;;;;15.98;9.10;;;;;;;;;;5034679;28;20021;-85
2021/07/22 09:29:55;;;;;;;14.80;7.88;;;;;;;;;;5034524;28;20013;-84
2021/07/22 09:32:41;;;;;;;14.07;6.95;;;;;;;;;;5034088;28;20467;-84
2021/07/22 09:35:27;;;;;;;12.00;7.15;;;;;;;;;;5034232;28;20116;-85
2021/07/22 09:38:12;;;;;;;10.30;7.13;;;;;;;;;;5034507;28;20017;-84
2021/07/22 09:40:57;;;;;;;11.60;6.93;;;;;;;;;;5032010;28;20463;-85
2021/07/22 09:43:44;;;;;;;9.20;6.15;;;;;;;;;;5034085;28;20251;-84
2021/07/22 09:46:39;;;;;;;14.95;10.55;;;;;;;;;;5032425;28;20479;-84
2021/07/22 09:49:31;;;;;;;13.30;7.18;;;;;;;;;;5034351;28;20021;-86
2021/07/22 09:52:16;;;;;;;11.82;6.78;;;;;;;;;;5030645;28;20112;-85
2021/07/22 09:55:02;;;;;;;8.27;6.28;;;;;;;;;;5034428;28;20024;-85
2021/07/22 09:57:47;;;;;;;10.32;7.10;;;;;;;;;;5034175;28;20032;-85
2021/07/22 10:00:33;;;;;;;10.05;6.40;;;;;;;;;;5031844;28;20025;-85
2021/07/22 10:03:19;;;;;;;10.52;6.68;;;;;;;;;;5034259;28;20033;-84
2021/07/22 10:06:05;;;;;;;12.55;6.70;;;;;;;;;;5033903;28;20032;-85
2021/07/22 10:08:50;;;;;;;12.45;7.00;;;;;;;;;;5033543;28;20475;-85
2021/07/22 10:11:36;;;;;;;11.05;6.40;;;;;;;;;;5034958;28;20029;-85
2021/07/22 10:14:22;;;;;;;9.80;7.05;;;;;;;;;;5053141;28;20034;-85
2021/07/22 10:17:08;;;;;;;10.90;7.32;;;;;;;;;;5034098;28;20040;-85
2021/07/22 10:19:55;;;;;;;10.88;8.02;;;;;;;;;;5033919;28;20060;-85
2021/07/22 10:22:41;;;;;;;11.85;6.65;;;;;;;;;;5033742;28;20025;-84
2021/07/22 10:25:27;;;;;;;12.23;6.80;;;;;;;;;;5034129;28;20522;-84
2021/07/22 10:28:12;;;;;;;10.88;6.95;;;;;;;;;;5047381;28;20021;-84
2021/07/22 10:30:58;;;;;;;15.23;9.82;;;;;;;;;;5033637;28;20541;-83
2021/07/22 10:33:44;;;;;;;13.63;10.50;;;;;;;;;;5034041;28;20036;-85
2021/07/22 10:36:29;;;;;;;10.68;7.15;;;;;;;;;;5033517;28;20032;-84
2021/07/22 10:39:15;;;;;;;9.63;7.22;;;;;;;;;;5033534;28;20584;-84
2021/07/22 10:42:00;;;;;;;11.45;7.60;;;;;;;;;;5047316;28;20126;-84
2021/07/22 10:44:45;;;;;;;14.20;7.55;;;;;;;;;;5036415;28;20019;-84
2021/07/22 10:47:50;;;;;;;9.38;6.53;;;;;;;;;;5022222;28;20027;-85
2021/07/22 10:50:35;;;;;;;12.55;7.95;;;;;;;;;;5037263;28;20567;-84
2021/07/22 10:53:39;;;;;;;11.57;8.40;;;;;;;;;;5035258;28;20400;-85
2021/07/22 10:56:24;;;;;;;12.35;8.10;;;;;;;;;;5036697;28;20033;-84
2021/07/22 10:59:10;;;;;;;14.15;7.80;;;;;;;;;;5036971;28;20052;-85
2021/07/22 11:01:57;;;;;;;12.27;7.68;;;;;;;;;;5036613;28;20438;-85
2021/07/22 11:04:42;;;;;;;10.05;7.18;;;;;;;;;;5035166;28;20079;-85
2021/07/22 11:07:28;;;;;;;15.10;7.68;;;;;;;;;;5037154;28;20099;-85
2021/07/22 11:10:13;;;;;;;13.20;7.55;;;;;;;;;;5034814;28;20032;-85
2021/07/22 11:12:58;;;;;;;16.13;8.75;;;;;;;;;;5049779;28;20072;-85
2021/07/22 11:15:47;;;;;;;10.00;6.50;;;;;;;;;;5045174;28;20562;-84
2021/07/22 11:18:44;;;;;;;12.07;8.02;;;;;;;;;;5036494;28;20036;-85
2021/07/22 11:21:33;;;;;;;14.82;7.43;;;;;;;;;;5036141;28;20055;-85
2021/07/22 11:24:19;;;;;;;;;;;;;;;;;;5037170;28;20025;-85
2021/07/22 11:27:04;;;;;;;13.07;7.80;;;;;;;;;;5036855;28;19909;-84
2021/07/22 11:29:49;;;;;;;10.95;7.32;;;;;;;;;;5036351;28;20367;-85
2021/07/22 11:32:35;;;;;;;13.05;7.97;;;;;;;;;;5036817;28;20025;-84
2021/07/22 11:35:21;;;;;;;14.07;9.93;;;;;;;;;;5036441;28;20032;-85
2021/07/22 11:38:07;;;;;;;13.18;8.93;;;;;;;;;;5036074;28;20425;-84
2021/07/22 11:40:53;;;;;;;11.43;7.90;;;;;;;;;;5034362;28;20091;-84
2021/07/22 11:43:38;;;;;;;21.02;7.97;;;;;;;;;;5035874;28;20123;-85
2021/07/22 11:46:34;;;;;;;12.32;8.13;;;;;;;;;;5036247;28;20017;-85
2021/07/22 11:49:19;;;;;;;13.82;9.25;;;;;;;;;;5035870;28;20471;-85
2021/07/22 11:52:04;;;;;;;14.07;8.65;;;;;;;;;;5036149;28;20033;-84
2021/07/22 11:55:08;;;;;;;12.02;8.85;;;;;;;;;;5035733;28;20108;-84
2021/07/22 11:57:53;;;;;;;13.38;7.90;;;;;;;;;;5035549;28;20482;-84
2021/07/22 12:00:39;;;;;;;13.65;8.57;;;;;;;;;;5033993;28;20477;-84
2021/07/22 12:03:24;;;;;;;11.73;8.60;;;;;;;;;;5035785;28;20048;-84
2021/07/22 12:06:09;;;;;;;11.98;8.75;;;;;;;;;;5033868;28;20017;-83
2021/07/22 12:09:01;;;;;;;12.05;8.63;;;;;;;;;;5035411;28;20624;-85
2021/07/22 12:11:50;;;;;;;15.93;8.57;;;;;;;;;;5034379;28;20035;-85
2021/07/22 12:14:37;;;;;;;10.85;9.25;;;;;;;;;;5053305;28;20051;-85
2021/07/22 12:17:22;;;;;;;12.63;8.90;;;;;;;;;;5033694;28;20031;-84
2021/07/22 12:20:08;;;;;;;14.13;8.07;;;;;;;;;;5034935;28;20028;-84
2021/07/22 12:22:53;;;;;;;11.57;8.00;;;;;;;;;;5035575;28;20024;-85
2021/07/22 12:25:53;;;;;;;11.23;7.75;;;;;;;;;;5034851;28;20143;-84
2021/07/22 12:28:38;;;;;;;14.35;8.77;;;;;;;;;;5035131;28;20116;-84
2021/07/22 12:31:24;;;;;;;16.10;12.45;;;;;;;;;;5033338;28;20051;-84
2021/07/22 12:34:13;;;;;;;24.30;17.60;;;;;;;;;;5035396;28;20028;-84
2021/07/22 12:36:58;;;;;;;;;;;;;;;;;;5035230;28;20514;-84
2021/07/22 12:39:44;;;;;;;13.95;9.13;;;;;;;;;;5034954;28;19920;-84
2021/07/22 12:42:29;;;;;;;15.27;8.98;;;;;;;;;;5035449;28;20044;-84
2021/07/22 12:45:14;;;;;;;12.10;8.60;;;;;;;;;;5035204;28;20064;-85
2021/07/22 12:48:00;;;;;;;11.52;8.23;;;;;;;;;;5034986;28;20032;-85
2021/07/22 12:50:46;;;;;;;13.85;8.98;;;;;;;;;;5033060;28;20033;-84
2021/07/22 12:53:32;;;;;;;11.73;8.90;;;;;;;;;;5034924;28;20079;-85
2021/07/22 12:56:17;;;;;;;12.20;8.80;;;;;;;;;;5034644;28;20602;-84
2021/07/22 12:59:08;;;;;;;11.32;8.68;;;;;;;;;;5032785;28;20071;-84
2021/07/22 13:01:59;;;;;;;16.10;11.50;;;;;;;;;;5034652;28;20112;-84
2021/07/22 13:04:44;;;;;;;16.55;11.40;;;;;;;;;;5034293;28;20017;-85
2021/07/22 13:07:29;;;;;;;11.43;8.77;;;;;;;;;;5034303;28;20061;-84
2021/07/22 13:10:19;;;;;;;14.98;9.77;;;;;;;;;;5034235;28;20472;-84
2021/07/22 13:13:05;;;;;;;14.02;8.23;;;;;;;;;;5047253;28;20551;-83
2021/07/22 13:15:50;;;;;;;13.55;9.23;;;;;;;;;;5041907;28;20028;-84
2021/07/22 13:18:36;;;;;;;12.27;9.23;;;;;;;;;;5034246;28;20067;-84
2021/07/22 13:21:23;;;;;;;15.20;8.75;;;;;;;;;;5034536;28;20112;-84
2021/07/22 13:24:09;;;;;;;11.70;8.43;;;;;;;;;;5034041;28;20363;-84
2021/07/22 13:26:54;;;;;;;14.68;8.55;;;;;;;;;;5034219;28;20463;-84
2021/07/22 13:29:39;;;;;;;12.65;8.32;;;;;;;;;;5034361;28;20536;-85
2021/07/22 13:32:24;;;;;;;11.43;8.27;;;;;;;;;;5034015;28;20412;-84
2021/07/22 13:35:10;;;;;;;14.98;8.10;;;;;;;;;;5034278;28;20024;-85
2021/07/22 13:37:56;;;;;;;12.70;8.98;;;;;;;;;;5047845;28;20028;-85
2021/07/22 13:40:43;;;;;;;14.82;8.02;;;;;;;;;;5031891;28;20049;-85
2021/07/22 13:43:29;;;;;;;14.15;7.93;;;;;;;;;;5034231;28;20172;-83
2021/07/22 13:46:14;;;;;;;14.48;8.60;;;;;;;;;;5033684;28;20036;-85
2021/07/22 13:48:59;;;;;;;11.98;8.35;;;;;;;;;;5032298;28;20021;-85
2021/07/22 13:51:44;;;;;;;15.23;8.20;;;;;;;;;;5034109;28;20027;-84
2021/07/22 13:54:29;;;;;;;10.30;7.03;;;;;;;;;;5033418;28;20033;-84
2021/07/22 13:57:15;;;;;;;11.70;8.30;;;;;;;;;;5030478;28;20033;-85
2021/07/22 14:00:00;;;;;;;14.70;8.20;;;;;;;;;;5033880;28;20048;-84
2021/07/22 14:02:45;;;;;;;14.25;8.30;;;;;;;;;;5030215;28;20492;-84
2021/07/22 14:05:31;;;;;;;12.90;8.50;;;;;;;;;;5033709;28;20025;-84
2021/07/22 14:08:19;;;;;;;10.00;8.63;;;;;;;;;;5034024;28;20028;-84
2021/07/22 14:11:04;;;;;;;13.73;9.02;;;;;;;;;;5033991;28;20024;-84
2021/07/22 14:13:49;;;;;;;14.32;11.13;;;;;;;;;;5053344;28;20028;-84
2021/07/22 14:16:35;;;;;;;16.00;8.13;;;;;;;;;;5034866;28;20025;-84
2021/07/22 14:19:20;;;;;;;14.30;8.57;;;;;;;;;;5038257;28;20856;-84
2021/07/22 14:22:05;;;;;;;10.95;8.48;;;;;;;;;;5037803;28;20048;-84
2021/07/22 14:24:51;;;;;;;12.02;8.18;;;;;;;;;;5037569;28;20025;-84
2021/07/22 14:27:36;;;;;;;13.65;8.50;;;;;;;;;;5037908;28;20037;-84
2021/07/22 14:30:21;;;;;;;10.65;7.88;;;;;;;;;;5037534;28;20025;-84
2021/07/22 14:33:07;;;;;;;12.63;8.00;;;;;;;;;;5037231;28;20526;-84
2021/07/22 14:35:52;;;;;;;15.50;8.25;;;;;;;;;;5037926;28;20052;-84
2021/07/22 14:38:37;;;;;;;9.70;7.88;;;;;;;;;;5037310;28;20029;-84
2021/07/22 14:41:22;;;;;;;17.80;8.43;;;;;;;;;;5036770;28;20045;-84
2021/07/22 14:44:08;;;;;;;13.95;8.48;;;;;;;;;;5037330;28;20021;-85
2021/07/22 14:46:53;;;;;;;10.63;7.50;;;;;;;;;;5037064;28;20053;-85
2021/07/22 14:49:38;;;;;;;10.35;7.50;;;;;;;;;;5037026;28;20100;-85
2021/07/22 14:52:24;;;;;;;14.13;8.55;;;;;;;;;;5037460;28;20098;-84
2021/07/22 14:55:10;;;;;;;13.52;7.32;;;;;;;;;;5036520;28;20024;-84
2021/07/22 14:57:55;;;;;;;10.48;7.80;;;;;;;;;;5036935;28;20053;-84
2021/07/22 15:00:41;;;;;;;19.13;9.95;;;;;;;;;;5035577;28;20033;-83
2021/07/22 15:03:26;;;;;;;16.25;11.90;;;;;;;;;;5036286;28;20028;-84
2021/07/22 15:06:11;;;;;;;13.00;7.93;;;;;;;;;;5036576;28;20112;-85
2021/07/22 15:08:57;;;;;;;15.35;8.38;;;;;;;;;;5035115;28;20600;-85
2021/07/22 15:11:42;;;;;;;11.52;7.88;;;;;;;;;;5038153;28;20036;-85
2021/07/22 15:14:27;;;;;;;13.05;7.68;;;;;;;;;;5055650;28;20029;-85
2021/07/22 15:17:12;;;;;;;13.73;9.13;;;;;;;;;;5036435;28;20124;-85
2021/07/22 15:19:57;;;;;;;11.20;8.30;;;;;;;;;;5035873;28;20558;-85
2021/07/22 15:22:43;;;;;;;17.00;9.10;;;;;;;;;;5036706;28;20086;-84
2021/07/22 15:25:28;;;;;;;12.25;8.10;;;;;;;;;;5035995;28;20099;-84
2021/07/22 15:28:13;;;;;;;13.90;8.00;;;;;;;;;;5035856;28;20378;-84
2021/07/22 15:30:59;;;;;;;11.05;8.23;;;;;;;;;;5034032;28;20652;-84
2021/07/22 15:33:44;;;;;;;14.05;8.32;;;;;;;;;;5035066;28;20398;-84
2021/07/22 15:36:29;;;;;;;16.50;7.93;;;;;;;;;;5020610;28;20412;-84
2021/07/22 15:39:14;;;;;;;10.48;7.70;;;;;;;;;;5035671;28;20678;-85
2021/07/22 15:42:00;;;;;;;13.52;8.32;;;;;;;;;;5035180;28;20025;-84
2021/07/22 15:44:45;;;;;;;13.55;8.73;;;;;;;;;;5035679;28;20032;-84
2021/07/22 15:47:30;;;;;;;12.98;8.85;;;;;;;;;;5036061;28;20032;-84
2021/07/22 15:50:15;;;;;;;13.30;8.10;;;;;;;;;;5035842;28;20131;-83
2021/07/22 15:53:01;;;;;;;12.95;7.43;;;;;;;;;;5035929;28;20032;-83
2021/07/22 15:55:46;;;;;;;17.58;9.30;;;;;;;;;;5035955;28;20028;-84
2021/07/22 15:58:31;;;;;;;9.90;7.18;;;;;;;;;;5035477;28;20025;-83
2021/07/22 16:01:16;;;;;;;13.13;8.15;;;;;;;;;;5033871;28;20033;-83
2021/07/22 16:04:01;;;;;;;12.77;8.23;;;;;;;;;;5035679;28;20593;-83
2021/07/22 16:06:47;;;;;;;12.88;8.02;;;;;;;;;;5035582;28;20017;-83
2021/07/22 16:09:33;;;;;;;10.60;7.38;;;;;;;;;;5035858;28;20023;-83
2021/07/22 16:12:18;;;;;;;10.80;7.88;;;;;;;;;;5041679;28;20487;-83
2021/07/22 16:15:03;;;;;;;13.38;8.15;;;;;;;;;;5049113;28;20110;-83
2021/07/22 16:17:49;;;;;;;13.38;7.80;;;;;;;;;;5035323;28;20249;-83
2021/07/22 16:20:34;;;;;;;11.65;7.25;;;;;;;;;;5033107;28;20025;-83